createdAt,value
2022-12-29T00:01:48.808Z,8.23
2022-12-29T00:04:17.800Z,8.60
2022-12-29T00:06:47.690Z,7.78
2022-12-29T00:09:17.543Z,9.13
2022-12-29T00:11:46.294Z,8.35
2022-12-29T00:14:32.294Z,9.00
2022-12-29T00:17:00.672Z,8.32
2022-12-29T00:19:46.585Z,7.78
2022-12-29T00:22:36.642Z,8.50
2022-12-29T00:25:26.104Z,8.32
2022-12-29T00:28:11.660Z,8.95
2022-12-29T00:30:57.271Z,8.68
2022-12-29T00:33:47.866Z,7.82
2022-12-29T00:36:20.101Z,8.75
2022-12-29T00:39:10.141Z,8.25
2022-12-29T00:41:55.812Z,7.78
2022-12-29T00:44:24.189Z,7.32
2022-12-29T00:46:52.576Z,7.40
2022-12-29T00:49:32.197Z,8.43
2022-12-29T00:52:02.923Z,8.30
2022-12-29T00:54:34.931Z,7.85
2022-12-29T00:57:04.508Z,7.80
2022-12-29T00:59:33.000Z,7.72
2022-12-29T01:02:01.586Z,8.25
2022-12-29T01:04:31.234Z,7.93
2022-12-29T01:06:59.637Z,7.75
2022-12-29T01:09:45.488Z,8.40
2022-12-29T01:12:15.849Z,7.80
2022-12-29T01:14:44.173Z,7.75
2022-12-29T01:17:12.354Z,8.50
2022-12-29T01:19:41.804Z,7.40
2022-12-29T01:22:10.196Z,6.97
2022-12-29T01:24:38.815Z,7.63
2022-12-29T01:27:07.489Z,7.10
2022-12-29T01:29:37.214Z,6.93
2022-12-29T01:32:07.606Z,7.25
2022-12-29T01:34:35.938Z,7.25
2022-12-29T01:37:05.506Z,7.28
2022-12-29T01:39:33.932Z,7.20
2022-12-29T01:42:02.855Z,5.88
2022-12-29T01:44:54.674Z,7.57
2022-12-29T01:47:38.318Z,6.75
2022-12-29T01:50:10.937Z,7.13
2022-12-29T01:52:44.386Z,6.88
2022-12-29T01:55:14.518Z,7.32
2022-12-29T01:57:48.211Z,6.53
2022-12-29T02:00:18.683Z,7.30
2022-12-29T02:02:52.697Z,7.07
2022-12-29T02:05:27.435Z,6.15
2022-12-29T02:07:56.145Z,6.53
2022-12-29T02:10:28.277Z,5.72
2022-12-29T02:12:58.599Z,7.30
2022-12-29T02:15:37.839Z,6.90
2022-12-29T02:18:20.914Z,7.30
2022-12-29T02:21:34.662Z,7.05
2022-12-29T02:24:32.684Z,6.32
2022-12-29T02:27:28.203Z,6.28
2022-12-29T02:30:07.925Z,6.05
2022-12-29T02:32:45.982Z,6.70
2022-12-29T02:35:23.365Z,6.10
2022-12-29T02:38:01.505Z,6.35
2022-12-29T02:40:37.703Z,5.32
2022-12-29T02:43:15.860Z,5.47
2022-12-29T02:45:51.741Z,5.90
2022-12-29T02:48:26.884Z,5.95
2022-12-29T02:51:03.538Z,5.70
2022-12-29T02:53:51.507Z,5.78
2022-12-29T02:56:21.192Z,6.03
2022-12-29T02:58:49.859Z,5.97
2022-12-29T03:01:35.975Z,6.22
2022-12-29T03:04:21.304Z,5.63
2022-12-29T03:06:58.334Z,6.32
2022-12-29T03:09:36.495Z,5.93
2022-12-29T03:12:13.500Z,5.53
2022-12-29T03:15:11.502Z,5.07
2022-12-29T03:17:52.566Z,5.30
2022-12-29T03:20:27.639Z,5.88
2022-12-29T03:23:02.498Z,5.30
2022-12-29T03:25:38.794Z,4.80
2022-12-29T03:28:14.753Z,5.85
2022-12-29T03:30:47.961Z,4.68
2022-12-29T03:33:23.340Z,5.10
2022-12-29T03:35:56.271Z,5.63
2022-12-29T03:38:29.921Z,5.30
2022-12-29T03:41:00.914Z,5.65
2022-12-29T03:43:32.050Z,5.82
2022-12-29T03:46:00.516Z,5.80
2022-12-29T03:48:28.816Z,5.00
2022-12-29T03:50:59.504Z,5.13
2022-12-29T03:53:28.346Z,5.90
2022-12-29T03:55:56.659Z,5.40
2022-12-29T03:58:25.273Z,5.55
2022-12-29T04:01:13.784Z,5.93
2022-12-29T04:03:42.662Z,5.45
2022-12-29T04:06:13.071Z,5.20
2022-12-29T04:08:48.206Z,5.07
2022-12-29T04:11:16.466Z,5.15
2022-12-29T04:13:46.933Z,5.00
2022-12-29T04:16:19.710Z,5.22
2022-12-29T04:18:48.070Z,5.03
2022-12-29T04:21:17.797Z,5.40
2022-12-29T04:23:46.740Z,5.25
2022-12-29T04:26:15.800Z,4.75
2022-12-29T04:28:54.888Z,5.10
2022-12-29T04:31:45.559Z,5.10
2022-12-29T04:34:13.995Z,5.85
2022-12-29T04:36:44.301Z,5.40
2022-12-29T04:39:12.570Z,5.05
2022-12-29T04:41:42.613Z,5.22
2022-12-29T04:44:17.231Z,5.30
2022-12-29T04:47:12.554Z,5.60
2022-12-29T04:49:54.010Z,5.55
2022-12-29T04:52:56.013Z,5.18
2022-12-29T04:55:24.477Z,5.38
2022-12-29T04:57:52.774Z,6.00
2022-12-29T05:00:22.017Z,6.18
2022-12-29T05:02:50.604Z,5.00
2022-12-29T05:05:19.673Z,5.45
2022-12-29T05:07:51.222Z,5.95
2022-12-29T05:10:21.283Z,5.50
2022-12-29T05:12:51.762Z,6.32
2022-12-29T05:15:20.323Z,7.05
2022-12-29T05:17:48.649Z,6.10
2022-12-29T05:20:17.141Z,5.57
2022-12-29T05:22:45.805Z,6.00
2022-12-29T05:25:14.067Z,6.05
2022-12-29T05:27:59.760Z,6.20
2022-12-29T05:30:42.448Z,7.18
2022-12-29T05:33:12.686Z,5.82
2022-12-29T05:35:41.760Z,6.30
2022-12-29T05:38:10.540Z,6.13
2022-12-29T05:40:39.989Z,6.13
2022-12-29T05:43:19.677Z,6.60
2022-12-29T05:46:07.865Z,6.10
2022-12-29T05:48:48.873Z,6.55
2022-12-29T05:51:23.827Z,6.97
2022-12-29T05:53:54.264Z,7.00
2022-12-29T05:56:23.794Z,6.95
2022-12-29T05:58:59.091Z,6.28
2022-12-29T06:01:27.583Z,6.10
2022-12-29T06:03:56.305Z,7.15
2022-12-29T06:06:24.701Z,7.38
2022-12-29T06:08:53.149Z,6.80
2022-12-29T06:11:25.681Z,7.68
2022-12-29T06:13:59.181Z,7.30
2022-12-29T06:16:27.557Z,7.75
2022-12-29T06:18:59.612Z,6.90
2022-12-29T06:21:27.940Z,7.20
2022-12-29T06:23:56.240Z,7.80
2022-12-29T06:26:24.501Z,7.63
2022-12-29T06:28:53.183Z,7.35
2022-12-29T06:31:23.262Z,6.97
2022-12-29T06:33:51.631Z,7.60
2022-12-29T06:36:20.026Z,6.72
2022-12-29T06:38:48.472Z,7.78
2022-12-29T06:41:16.704Z,7.13
2022-12-29T06:44:03.769Z,7.72
2022-12-29T06:46:54.015Z,7.88
2022-12-29T06:49:22.961Z,8.70
2022-12-29T06:51:51.425Z,7.50
2022-12-29T06:54:19.673Z,7.88
2022-12-29T06:56:47.911Z,7.35
2022-12-29T06:59:16.171Z,8.18
2022-12-29T07:01:45.852Z,7.68
2022-12-29T07:04:15.748Z,7.80
2022-12-29T07:06:44.081Z,8.35
2022-12-29T07:09:12.715Z,7.50
2022-12-29T07:11:42.307Z,7.18
2022-12-29T07:14:10.565Z,7.75
2022-12-29T07:16:38.927Z,7.60
2022-12-29T07:19:07.576Z,8.88
2022-12-29T07:21:37.346Z,7.43
2022-12-29T07:24:06.226Z,7.10
2022-12-29T07:26:36.431Z,7.57
2022-12-29T07:29:05.040Z,8.48
2022-12-29T07:31:33.596Z,7.05
2022-12-29T07:34:02.511Z,8.35
2022-12-29T07:36:34.329Z,8.07
2022-12-29T07:39:04.703Z,8.52
2022-12-29T07:41:32.972Z,7.82
2022-12-29T07:44:03.885Z,7.80
2022-12-29T07:46:58.828Z,7.93
2022-12-29T07:49:27.707Z,7.93
2022-12-29T07:51:55.982Z,6.90
2022-12-29T07:54:25.886Z,7.47
2022-12-29T07:56:54.944Z,7.65
2022-12-29T07:59:23.423Z,7.53
2022-12-29T08:01:52.302Z,6.75
2022-12-29T08:04:20.871Z,6.82
2022-12-29T08:06:49.491Z,6.72
2022-12-29T08:09:22.311Z,6.95
2022-12-29T08:12:10.834Z,7.75
2022-12-29T08:14:39.124Z,6.85
2022-12-29T08:17:07.391Z,7.45
2022-12-29T08:19:35.752Z,7.68
2022-12-29T08:22:04.272Z,7.50
2022-12-29T08:24:32.522Z,7.60
2022-12-29T08:27:06.885Z,8.35
2022-12-29T08:29:41.850Z,8.20
2022-12-29T08:32:10.474Z,7.85
2022-12-29T08:34:38.970Z,8.18
2022-12-29T08:37:07.321Z,8.45
2022-12-29T08:39:35.921Z,8.90
2022-12-29T08:42:04.366Z,8.57
2022-12-29T08:44:32.725Z,8.48
2022-12-29T08:47:02.377Z,8.77
2022-12-29T08:49:30.668Z,10.18
2022-12-29T08:51:58.934Z,9.90
2022-12-29T08:54:27.501Z,9.02
2022-12-29T08:56:56.514Z,9.43
2022-12-29T08:59:33.052Z,9.32
2022-12-29T09:02:03.054Z,9.43
2022-12-29T09:04:31.568Z,10.45
2022-12-29T09:06:59.869Z,9.10
2022-12-29T09:09:28.194Z,9.90
2022-12-29T09:11:57.625Z,8.88
2022-12-29T09:14:25.825Z,10.23
2022-12-29T09:17:12.126Z,8.60
2022-12-29T09:19:44.196Z,10.82
2022-12-29T09:22:12.505Z,9.02
2022-12-29T09:24:40.781Z,9.75
2022-12-29T09:27:09.076Z,9.45
2022-12-29T09:29:37.479Z,10.48
2022-12-29T09:32:07.913Z,9.13
2022-12-29T09:34:36.945Z,8.63
2022-12-29T09:37:06.615Z,9.13
2022-12-29T09:39:34.838Z,8.63
2022-12-29T09:42:09.635Z,8.48
2022-12-29T09:44:53.956Z,8.63
2022-12-29T09:47:24.841Z,7.25
2022-12-29T09:49:58.475Z,6.90
2022-12-29T09:52:31.588Z,6.90
2022-12-29T09:55:08.978Z,6.75
2022-12-29T09:57:47.054Z,6.95
2022-12-29T10:00:18.188Z,7.35
2022-12-29T10:02:53.530Z,6.43
2022-12-29T10:05:40.724Z,6.78
2022-12-29T10:08:25.789Z,6.00
2022-12-29T10:10:58.544Z,6.15
2022-12-29T10:13:41.167Z,7.18
2022-12-29T10:16:14.454Z,5.53
2022-12-29T10:19:26.986Z,5.10
2022-12-29T10:22:15.262Z,6.07
2022-12-29T10:24:48.933Z,6.32
2022-12-29T10:27:18.076Z,6.70
2022-12-29T10:29:50.828Z,7.15
2022-12-29T10:32:28.938Z,6.53
2022-12-29T10:35:00.701Z,6.28
2022-12-29T10:37:37.061Z,6.47
2022-12-29T10:40:18.365Z,5.60
2022-12-29T10:42:52.101Z,6.32
2022-12-29T10:45:23.367Z,5.95
2022-12-29T10:47:58.131Z,6.38
2022-12-29T10:50:30.091Z,7.05
2022-12-29T10:53:02.922Z,6.38
2022-12-29T10:55:37.505Z,6.05
2022-12-29T10:58:09.050Z,6.90
2022-12-29T11:00:37.394Z,7.07
2022-12-29T11:03:35.518Z,7.00
2022-12-29T11:06:12.184Z,6.43
2022-12-29T11:08:43.430Z,6.95
2022-12-29T11:11:27.181Z,6.55
2022-12-29T11:14:00.676Z,6.55
2022-12-29T11:16:37.027Z,7.05
2022-12-29T11:19:05.400Z,6.53
2022-12-29T11:21:41.135Z,6.28
2022-12-29T11:24:23.844Z,7.07
2022-12-29T11:26:58.423Z,6.30
2022-12-29T11:29:29.584Z,7.10
2022-12-29T11:32:00.360Z,7.10
2022-12-29T11:34:34.592Z,7.88
2022-12-29T11:37:07.379Z,6.70
2022-12-29T11:39:41.355Z,6.82
2022-12-29T11:42:18.399Z,6.50
2022-12-29T11:44:49.184Z,6.50
2022-12-29T11:47:28.697Z,6.80
2022-12-29T11:50:04.079Z,6.65
2022-12-29T11:52:37.152Z,6.78
2022-12-29T11:55:07.553Z,6.70
2022-12-29T11:57:38.438Z,6.35
2022-12-29T12:00:18.227Z,6.45
2022-12-29T12:02:52.678Z,6.60
2022-12-29T12:05:37.632Z,8.20
2022-12-29T12:08:20.431Z,6.43
2022-12-29T12:10:52.688Z,7.03
2022-12-29T12:13:27.819Z,6.55
2022-12-29T12:16:01.442Z,6.03
2022-12-29T12:18:41.629Z,6.80
2022-12-29T12:21:16.873Z,7.15
2022-12-29T12:24:16.210Z,6.75
2022-12-29T12:26:57.410Z,6.82
2022-12-29T12:29:33.929Z,6.10
2022-12-29T12:32:11.020Z,6.13
2022-12-29T12:34:43.883Z,6.40
2022-12-29T12:37:44.060Z,6.25
2022-12-29T12:40:36.586Z,6.50
2022-12-29T12:43:33.029Z,6.95
2022-12-29T12:46:25.783Z,6.70
2022-12-29T12:49:38.864Z,6.90
2022-12-29T12:52:19.262Z,6.82
2022-12-29T12:55:07.653Z,7.28
2022-12-29T12:57:48.282Z,6.85
2022-12-29T13:00:20.835Z,6.30
2022-12-29T13:03:07.430Z,6.20
2022-12-29T13:05:47.221Z,7.07
2022-12-29T13:08:33.781Z,6.55
2022-12-29T13:11:09.961Z,6.80
2022-12-29T13:13:57.340Z,7.25
2022-12-29T13:16:34.482Z,6.45
2022-12-29T13:19:08.971Z,6.93
2022-12-29T13:21:57.370Z,5.95
2022-12-29T13:24:36.200Z,7.25
2022-12-29T13:27:14.056Z,6.22
2022-12-29T13:29:50.021Z,6.57
2022-12-29T13:32:30.525Z,6.40
2022-12-29T13:35:12.949Z,6.65
2022-12-29T13:37:50.516Z,6.28
2022-12-29T13:40:25.857Z,6.68
2022-12-29T13:42:55.238Z,6.40
2022-12-29T13:45:26.949Z,6.10
2022-12-29T13:47:58.968Z,6.45
2022-12-29T13:50:31.825Z,6.35
2022-12-29T13:53:07.577Z,6.45
2022-12-29T13:55:46.459Z,6.07
2022-12-29T13:58:24.173Z,6.35
2022-12-29T14:01:01.133Z,7.30
2022-12-29T14:03:50.543Z,5.90
2022-12-29T14:06:25.076Z,6.68
2022-12-29T14:08:55.809Z,6.72
2022-12-29T14:11:30.805Z,6.20
2022-12-29T14:13:59.877Z,6.40
2022-12-29T14:16:36.937Z,6.70
2022-12-29T14:19:14.952Z,6.72
2022-12-29T14:21:53.991Z,7.47
2022-12-29T14:24:42.997Z,7.15
2022-12-29T14:27:47.374Z,6.85
2022-12-29T14:30:49.803Z,6.57
2022-12-29T14:33:19.111Z,6.90
2022-12-29T14:35:53.203Z,7.13
2022-12-29T14:38:29.159Z,6.78
2022-12-29T14:41:21.186Z,6.97
2022-12-29T14:44:12.423Z,8.20
2022-12-29T14:46:58.197Z,7.50
2022-12-29T14:49:29.965Z,7.65
2022-12-29T14:52:30.633Z,7.95
2022-12-29T14:55:22.108Z,6.80
2022-12-29T14:57:53.957Z,7.63
2022-12-29T15:00:25.564Z,8.13
2022-12-29T15:03:06.885Z,8.10
2022-12-29T15:05:43.416Z,7.32
2022-12-29T15:08:14.450Z,8.05
2022-12-29T15:10:50.048Z,7.28
2022-12-29T15:13:41.118Z,7.43
2022-12-29T15:16:25.450Z,8.40
2022-12-29T15:18:54.317Z,8.60
2022-12-29T15:21:39.714Z,7.65
2022-12-29T15:24:12.656Z,8.07
2022-12-29T15:27:25.822Z,8.25
2022-12-29T15:30:00.923Z,7.65
2022-12-29T15:33:09.640Z,7.32
2022-12-29T15:38:40.401Z,7.63
2022-12-29T15:41:28.550Z,7.63
2022-12-29T15:44:18.196Z,7.88
2022-12-29T15:46:52.667Z,7.35
2022-12-29T15:49:30.331Z,7.82
2022-12-29T15:52:12.079Z,7.22
2022-12-29T15:54:51.270Z,8.43
2022-12-29T15:57:25.515Z,8.48
2022-12-29T16:00:04.985Z,7.90
2022-12-29T16:02:52.309Z,8.10
2022-12-29T16:05:20.937Z,8.13
2022-12-29T16:07:57.790Z,7.18
2022-12-29T16:10:34.891Z,7.90
2022-12-29T16:13:13.318Z,8.38
2022-12-29T16:15:43.204Z,8.43
2022-12-29T16:18:26.723Z,7.35
2022-12-29T16:20:56.549Z,8.23
2022-12-29T16:23:31.712Z,8.30
2022-12-29T16:26:00.765Z,7.95
2022-12-29T16:28:40.268Z,8.38
2022-12-29T16:31:22.540Z,8.18
2022-12-29T16:33:52.671Z,7.88
2022-12-29T16:36:41.751Z,7.93
2022-12-29T16:39:29.182Z,8.40
2022-12-29T16:41:58.200Z,8.70
2022-12-29T16:44:28.606Z,8.27
2022-12-29T16:47:20.124Z,8.20
2022-12-29T16:49:56.310Z,8.38
2022-12-29T16:52:30.165Z,8.35
2022-12-29T16:55:02.051Z,8.63
2022-12-29T16:57:32.209Z,7.85
2022-12-29T17:00:03.562Z,7.78
2022-12-29T17:02:35.780Z,7.88
2022-12-29T17:05:04.466Z,7.90
2022-12-29T17:07:33.676Z,8.30
2022-12-29T17:10:02.090Z,8.10
2022-12-29T17:12:31.422Z,6.63
2022-12-29T17:15:01.664Z,7.97
2022-12-29T17:17:36.105Z,7.40
2022-12-29T17:20:07.464Z,8.00
2022-12-29T17:22:36.941Z,7.63
2022-12-29T17:25:07.053Z,7.68
2022-12-29T17:27:39.789Z,8.02
2022-12-29T17:30:14.616Z,7.70
2022-12-29T17:32:48.423Z,8.07
2022-12-29T17:35:17.057Z,7.97
2022-12-29T17:37:45.805Z,7.88
2022-12-29T17:40:16.779Z,8.13
2022-12-29T17:42:47.400Z,8.23
2022-12-29T17:45:18.013Z,7.47
2022-12-29T17:47:47.835Z,7.90
2022-12-29T17:50:18.353Z,8.50
2022-12-29T17:52:50.204Z,8.98
2022-12-29T17:55:21.292Z,8.77
2022-12-29T17:57:49.952Z,8.27
2022-12-29T18:00:20.539Z,9.10
2022-12-29T18:02:51.103Z,7.63
2022-12-29T18:05:22.403Z,8.75
2022-12-29T18:07:52.548Z,8.45
2022-12-29T18:10:21.531Z,8.93
2022-12-29T18:12:52.074Z,8.13
2022-12-29T18:15:23.379Z,8.90
2022-12-29T18:17:59.579Z,8.10
2022-12-29T18:20:29.163Z,8.32
2022-12-29T18:23:02.315Z,7.65
2022-12-29T18:25:42.487Z,9.27
2022-12-29T18:28:11.272Z,8.77
2022-12-29T18:30:39.865Z,8.63
2022-12-29T18:33:21.011Z,8.57
2022-12-29T18:35:56.090Z,8.65
2022-12-29T18:38:24.538Z,9.02
2022-12-29T18:40:53.694Z,8.40
2022-12-29T18:43:22.646Z,8.75
2022-12-29T18:45:51.273Z,9.85
2022-12-29T18:48:23.131Z,8.98
2022-12-29T18:50:52.073Z,8.57
2022-12-29T18:53:22.694Z,8.88
2022-12-29T18:55:55.316Z,9.25
2022-12-29T18:58:26.731Z,8.35
2022-12-29T19:00:57.693Z,7.82
2022-12-29T19:03:33.928Z,8.20
2022-12-29T19:06:02.761Z,8.63
2022-12-29T19:08:31.199Z,8.20
2022-12-29T19:11:01.190Z,9.20
2022-12-29T19:13:30.084Z,9.23
2022-12-29T19:16:00.089Z,9.13
2022-12-29T19:18:43.594Z,9.45
2022-12-29T19:21:13.076Z,10.35
2022-12-29T19:23:41.574Z,9.43
2022-12-29T19:26:28.280Z,9.27
2022-12-29T19:28:56.866Z,9.32
2022-12-29T19:31:26.931Z,9.70
2022-12-29T19:33:59.518Z,9.38
2022-12-29T19:36:27.899Z,8.55
2022-12-29T19:38:56.516Z,9.40
2022-12-29T19:41:25.001Z,9.80
2022-12-29T19:43:53.398Z,9.98
2022-12-29T19:46:23.517Z,9.55
2022-12-29T19:48:52.118Z,8.88
2022-12-29T19:51:22.257Z,9.32
2022-12-29T19:53:50.817Z,9.80
2022-12-29T19:56:19.594Z,9.57
2022-12-29T19:58:48.117Z,9.30
2022-12-29T20:01:19.707Z,10.07
2022-12-29T20:03:49.570Z,10.00
2022-12-29T20:06:18.503Z,9.23
2022-12-29T20:08:51.822Z,10.43
2022-12-29T20:11:20.851Z,9.63
2022-12-29T20:13:49.527Z,10.10
2022-12-29T20:16:22.851Z,10.20
2022-12-29T20:18:51.495Z,9.02
2022-12-29T20:21:22.655Z,10.00
2022-12-29T20:24:01.379Z,9.65
2022-12-29T20:26:31.106Z,10.13
2022-12-29T20:29:00.217Z,9.88
2022-12-29T20:31:30.906Z,10.18
2022-12-29T20:33:59.643Z,9.77
2022-12-29T20:36:30.994Z,10.07
2022-12-29T20:39:04.700Z,10.35
2022-12-29T20:41:33.014Z,10.57
2022-12-29T20:44:01.846Z,10.30
2022-12-29T20:46:35.344Z,9.55
2022-12-29T20:49:09.970Z,10.35
2022-12-29T20:52:05.135Z,10.05
2022-12-29T20:54:30.716Z,10.88
2022-12-29T20:57:01.229Z,9.88
2022-12-29T20:59:30.915Z,9.85
2022-12-29T21:02:00.619Z,10.13
2022-12-29T21:04:43.723Z,10.65
2022-12-29T21:07:20.233Z,9.25
2022-12-29T21:09:52.707Z,9.70
2022-12-29T21:12:21.122Z,10.35
2022-12-29T21:14:49.502Z,9.18
2022-12-29T21:17:18.163Z,10.38
2022-12-29T21:19:46.565Z,10.13
2022-12-29T21:22:16.115Z,9.85
2022-12-29T21:24:45.472Z,9.65
2022-12-29T21:27:15.330Z,9.48
2022-12-29T21:29:44.145Z,9.50
2022-12-29T21:32:12.497Z,10.45
2022-12-29T21:34:41.026Z,10.35
2022-12-29T21:37:09.862Z,10.18
2022-12-29T21:39:38.406Z,9.57
2022-12-29T21:42:06.818Z,10.00
2022-12-29T21:45:16.629Z,10.30
2022-12-29T21:48:05.786Z,9.23
2022-12-29T21:50:34.213Z,10.60
2022-12-29T21:53:02.526Z,10.32
2022-12-29T21:55:30.923Z,10.00
2022-12-29T21:58:24.968Z,10.52
2022-12-29T22:01:12.811Z,10.75
2022-12-29T22:03:58.463Z,8.95
2022-12-29T22:06:44.378Z,10.18
2022-12-29T22:09:30.167Z,9.27
2022-12-29T22:12:15.774Z,10.23
2022-12-29T22:14:44.299Z,10.80
2022-12-29T22:17:14.645Z,9.98
2022-12-29T22:19:43.255Z,10.48
2022-12-29T22:22:11.519Z,10.20
2022-12-29T22:24:40.752Z,10.13
2022-12-29T22:27:09.245Z,9.70
2022-12-29T22:29:37.540Z,8.93
2022-12-29T22:32:06.838Z,10.60
2022-12-29T22:34:38.715Z,10.93
2022-12-29T22:37:07.511Z,10.40
2022-12-29T22:39:35.766Z,9.88
2022-12-29T22:42:04.014Z,8.63
2022-12-29T22:44:32.301Z,10.13
2022-12-29T22:47:00.944Z,10.00
2022-12-29T22:49:29.323Z,10.13
2022-12-29T22:51:58.967Z,10.10
2022-12-29T22:54:27.490Z,10.25
2022-12-29T22:56:55.919Z,10.05
2022-12-29T22:59:24.449Z,10.82
2022-12-29T23:01:52.950Z,10.43
2022-12-29T23:07:11.133Z,10.00
2022-12-29T23:09:39.601Z,9.27
2022-12-29T23:12:08.148Z,9.45
2022-12-29T23:14:36.459Z,10.40
2022-12-29T23:17:04.805Z,10.05
2022-12-29T23:19:33.288Z,10.60
2022-12-29T23:22:01.571Z,9.70
2022-12-29T23:24:32.865Z,10.20
2022-12-29T23:27:01.152Z,9.32
2022-12-29T23:29:29.472Z,11.35
2022-12-29T23:31:59.840Z,10.55
2022-12-29T23:34:28.151Z,10.77
2022-12-29T23:36:56.408Z,10.85
2022-12-29T23:39:25.483Z,9.48
2022-12-29T23:41:55.255Z,8.88
2022-12-29T23:44:23.837Z,10.10
2022-12-29T23:46:52.301Z,9.27
2022-12-29T23:49:21.011Z,9.75
2022-12-29T23:51:49.286Z,9.48
2022-12-29T23:54:17.508Z,10.18
2022-12-29T23:56:45.736Z,9.30
2022-12-29T23:59:15.423Z,10.27
